createdAt,value
2023-04-24T00:02:27.692Z,12.50
2023-04-24T00:04:55.680Z,12.70
2023-04-24T00:07:23.402Z,13.30
2023-04-24T00:09:51.532Z,14.50
2023-04-24T00:12:19.191Z,14.90
2023-04-24T00:14:46.944Z,14.10
2023-04-24T00:17:14.611Z,13.30
2023-04-24T00:19:42.512Z,14.20
2023-04-24T00:22:11.933Z,14.40
2023-04-24T00:24:40.179Z,14.10
2023-04-24T00:27:07.876Z,14.40
2023-04-24T00:29:35.954Z,14.20
2023-04-24T00:32:03.698Z,13.50
2023-04-24T00:34:33.415Z,13.60
2023-04-24T00:37:01.299Z,14.00
2023-04-24T00:39:28.943Z,14.10
2023-04-24T00:41:57.763Z,15.60
2023-04-24T00:44:25.476Z,16.60
2023-04-24T00:46:55.666Z,16.10
2023-04-24T00:49:23.478Z,15.30
2023-04-24T00:51:52.213Z,14.80
2023-04-24T00:54:20.039Z,16.20
2023-04-24T00:56:47.950Z,15.70
2023-04-24T00:59:18.262Z,15.50
2023-04-24T01:01:46.353Z,13.40
2023-04-24T01:04:14.363Z,13.80
2023-04-24T01:06:44.315Z,13.90
2023-04-24T01:09:13.229Z,13.10
2023-04-24T01:11:43.561Z,13.50
2023-04-24T01:14:13.233Z,12.80
2023-04-24T01:16:42.168Z,13.20
2023-04-24T01:19:11.388Z,13.00
2023-04-24T01:21:39.283Z,13.70
2023-04-24T01:24:07.734Z,15.70
2023-04-24T01:26:35.510Z,17.60
2023-04-24T01:29:03.323Z,14.80
2023-04-24T01:31:31.693Z,13.50
2023-04-24T01:33:59.647Z,13.50
2023-04-24T01:36:28.247Z,13.50
2023-04-24T01:38:55.977Z,13.80
2023-04-24T01:41:24.580Z,15.50
2023-04-24T01:43:53.283Z,12.50
2023-04-24T01:46:21.434Z,11.50
2023-04-24T01:48:49.138Z,12.40
2023-04-24T01:51:16.896Z,11.80
2023-04-24T01:53:44.628Z,11.50
2023-04-24T01:56:12.662Z,11.90
2023-04-24T01:58:40.606Z,14.80
2023-04-24T02:01:08.726Z,12.10
2023-04-24T02:03:36.828Z,12.60
2023-04-24T02:06:04.859Z,9.70
2023-04-24T02:08:32.795Z,10.10
2023-04-24T02:11:02.752Z,10.00
2023-04-24T02:13:30.527Z,9.70
2023-04-24T02:15:59.893Z,9.60
2023-04-24T02:18:27.743Z,9.70
2023-04-24T02:20:55.427Z,9.60
2023-04-24T02:23:23.033Z,8.60
2023-04-24T02:25:50.802Z,9.20
2023-04-24T02:28:18.867Z,9.10
2023-04-24T02:30:46.835Z,9.30
2023-04-24T02:33:16.398Z,8.90
2023-04-24T02:35:44.527Z,9.00
2023-04-24T02:38:12.397Z,9.00
2023-04-24T02:40:40.052Z,9.30
2023-04-24T02:43:07.683Z,8.70
2023-04-24T02:45:35.798Z,8.90
2023-04-24T02:48:05.309Z,9.50
2023-04-24T02:50:34.624Z,10.20
2023-04-24T02:53:02.403Z,10.80
2023-04-24T02:55:30.421Z,12.80
2023-04-24T02:57:58.351Z,12.70
2023-04-24T03:00:26.267Z,13.50
2023-04-24T03:02:54.439Z,14.30
2023-04-24T03:05:22.576Z,15.00
2023-04-24T03:07:50.790Z,14.60
2023-04-24T03:10:18.650Z,15.40
2023-04-24T03:12:46.274Z,16.70
2023-04-24T03:15:13.946Z,17.20
2023-04-24T03:17:42.081Z,15.60
2023-04-24T03:20:10.304Z,15.80
2023-04-24T03:22:38.451Z,16.00
2023-04-24T03:25:10.157Z,15.30
2023-04-24T03:27:38.713Z,15.90
2023-04-24T03:30:36.028Z,14.90
2023-04-24T03:33:04.151Z,15.50
2023-04-24T03:35:34.948Z,15.10
2023-04-24T03:38:07.216Z,14.30
2023-04-24T03:40:40.796Z,14.40
2023-04-24T03:43:17.795Z,14.30
2023-04-24T03:45:46.108Z,13.40
2023-04-24T03:48:14.697Z,13.70
2023-04-24T03:50:42.474Z,12.60
2023-04-24T03:53:11.589Z,12.10
2023-04-24T03:55:41.154Z,12.50
2023-04-24T03:58:08.857Z,12.40
2023-04-24T04:00:39.151Z,11.10
2023-04-24T04:03:26.466Z,11.60
2023-04-24T04:05:55.207Z,10.50
2023-04-24T04:08:22.834Z,11.40
2023-04-24T04:10:50.469Z,11.70
2023-04-24T04:13:18.103Z,10.70
2023-04-24T04:15:46.618Z,10.60
2023-04-24T04:18:14.712Z,10.90
2023-04-24T04:20:42.884Z,10.60
2023-04-24T04:23:11.540Z,11.00
2023-04-24T04:25:56.187Z,10.30
2023-04-24T04:28:25.796Z,10.40
2023-04-24T04:30:54.831Z,10.10
2023-04-24T04:33:22.958Z,10.40
2023-04-24T04:35:53.093Z,10.20
2023-04-24T04:38:21.780Z,10.70
2023-04-24T04:41:11.867Z,10.50
2023-04-24T04:43:41.722Z,10.60
2023-04-24T04:46:11.730Z,10.80
2023-04-24T04:49:02.486Z,11.10
2023-04-24T04:51:32.942Z,11.60
2023-04-24T04:54:01.201Z,11.30
2023-04-24T04:56:29.041Z,11.10
2023-04-24T04:59:00.021Z,11.10
2023-04-24T05:01:28.600Z,11.40
2023-04-24T05:03:57.031Z,10.70
2023-04-24T05:06:25.369Z,11.20
2023-04-24T05:08:57.022Z,11.40
2023-04-24T05:11:47.766Z,11.10
2023-04-24T05:14:15.664Z,10.80
2023-04-24T05:16:44.581Z,10.10
2023-04-24T05:19:14.986Z,10.60
2023-04-24T05:21:43.090Z,9.90
2023-04-24T05:24:11.690Z,10.60
2023-04-24T05:27:11.943Z,10.30
2023-04-24T05:29:41.996Z,9.90
2023-04-24T05:32:10.830Z,10.20
2023-04-24T05:34:38.508Z,10.30
2023-04-24T05:37:09.194Z,10.60
2023-04-24T05:39:37.433Z,10.40
2023-04-24T05:42:05.750Z,10.00
2023-04-24T05:44:33.416Z,10.90
2023-04-24T05:47:01.832Z,10.60
2023-04-24T05:49:30.432Z,9.90
2023-04-24T05:51:58.558Z,10.50
2023-04-24T05:54:26.220Z,10.00
2023-04-24T05:56:55.475Z,10.40
2023-04-24T05:59:31.692Z,9.80
2023-04-24T06:01:59.602Z,10.40
2023-04-24T06:04:27.406Z,9.80
2023-04-24T06:06:57.124Z,8.30
2023-04-24T06:09:25.895Z,8.40
2023-04-24T06:11:54.479Z,9.10
2023-04-24T06:14:24.272Z,8.30
2023-04-24T06:17:14.434Z,8.50
2023-04-24T06:19:42.394Z,7.90
2023-04-24T06:22:11.113Z,8.10
2023-04-24T06:24:38.915Z,7.70
2023-04-24T06:27:06.620Z,7.30
2023-04-24T06:29:34.775Z,7.80
2023-04-24T06:32:02.360Z,7.30
2023-04-24T06:34:31.772Z,7.60
2023-04-24T06:36:59.451Z,7.90
2023-04-24T06:39:27.038Z,7.60
2023-04-24T06:41:54.660Z,8.00
2023-04-24T06:44:22.275Z,7.50
2023-04-24T06:46:49.934Z,7.60
2023-04-24T06:49:17.654Z,7.10
2023-04-24T06:51:45.546Z,7.30
2023-04-24T06:54:13.140Z,6.90
2023-04-24T06:56:40.771Z,7.30
2023-04-24T06:59:08.458Z,7.90
2023-04-24T07:01:36.409Z,7.50
2023-04-24T07:04:04.276Z,7.40
2023-04-24T07:06:32.767Z,7.30
2023-04-24T07:09:01.257Z,6.50
2023-04-24T07:11:30.283Z,7.00
2023-04-24T07:13:58.065Z,6.90
2023-04-24T07:16:25.696Z,7.00
2023-04-24T07:18:53.378Z,7.20
2023-04-24T07:21:20.982Z,6.60
2023-04-24T07:23:48.628Z,7.20
2023-04-24T07:26:16.212Z,7.30
2023-04-24T07:28:44.101Z,7.40
2023-04-24T07:31:12.773Z,7.40
2023-04-24T07:33:40.507Z,7.70
2023-04-24T07:36:08.357Z,7.30
2023-04-24T07:38:36.086Z,7.40
2023-04-24T07:41:03.685Z,6.90
2023-04-24T07:43:31.349Z,7.20
2023-04-24T07:45:59.004Z,7.20
2023-04-24T07:48:27.599Z,7.20
2023-04-24T07:50:55.480Z,7.40
2023-04-24T07:53:23.272Z,7.40
2023-04-24T07:55:50.933Z,6.90
2023-04-24T07:58:18.511Z,6.40
2023-04-24T08:00:46.546Z,7.90
2023-04-24T08:03:14.651Z,6.10
2023-04-24T08:05:44.053Z,5.90
2023-04-24T08:08:12.028Z,6.00
2023-04-24T08:10:39.930Z,6.00
2023-04-24T08:13:07.594Z,5.60
2023-04-24T08:15:35.615Z,6.70
2023-04-24T08:18:03.299Z,6.00
2023-04-24T08:20:30.963Z,5.70
2023-04-24T08:22:58.610Z,6.00
2023-04-24T08:25:26.339Z,5.80
2023-04-24T08:27:54.189Z,6.70
2023-04-24T08:30:21.812Z,5.70
2023-04-24T08:32:49.786Z,6.30
2023-04-24T08:35:17.640Z,5.80
2023-04-24T08:37:45.703Z,5.80
2023-04-24T08:40:17.975Z,5.60
2023-04-24T08:42:46.006Z,5.70
2023-04-24T08:45:14.095Z,5.60
2023-04-24T08:47:43.032Z,5.50
2023-04-24T08:50:11.930Z,5.60
2023-04-24T08:52:39.585Z,5.30
2023-04-24T08:55:07.648Z,5.20
2023-04-24T08:57:36.966Z,6.00
2023-04-24T09:00:05.660Z,5.70
2023-04-24T09:02:36.095Z,5.20
2023-04-24T09:05:04.873Z,5.10
2023-04-24T09:07:36.472Z,5.40
2023-04-24T09:10:04.386Z,5.30
2023-04-24T09:12:31.976Z,5.70
2023-04-24T09:14:59.856Z,5.30
2023-04-24T09:17:29.387Z,5.50
2023-04-24T09:19:57.053Z,5.40
2023-04-24T09:22:24.735Z,5.50
2023-04-24T09:25:04.436Z,6.00
2023-04-24T09:27:32.899Z,5.60
2023-04-24T09:30:01.668Z,7.10
2023-04-24T09:32:31.134Z,5.50
2023-04-24T09:35:11.982Z,5.70
2023-04-24T09:37:42.426Z,5.30
2023-04-24T09:40:14.699Z,5.40
2023-04-24T09:43:02.349Z,5.70
2023-04-24T09:45:40.925Z,6.00
2023-04-24T09:48:12.122Z,5.30
2023-04-24T09:50:39.875Z,5.10
2023-04-24T09:53:09.881Z,5.70
2023-04-24T09:55:46.373Z,5.10
2023-04-24T09:58:14.012Z,5.50
2023-04-24T10:00:42.092Z,5.70
2023-04-24T10:03:09.880Z,5.00
2023-04-24T10:05:39.804Z,5.60
2023-04-24T10:08:10.132Z,5.90
2023-04-24T10:10:44.795Z,5.90
2023-04-24T10:13:14.320Z,6.30
2023-04-24T10:15:43.055Z,5.70
2023-04-24T10:18:11.805Z,5.60
2023-04-24T10:20:41.213Z,5.80
2023-04-24T10:23:09.032Z,6.00
2023-04-24T10:25:38.048Z,5.60
2023-04-24T10:28:07.743Z,6.10
2023-04-24T10:30:37.121Z,5.80
2023-04-24T10:33:06.858Z,5.80
2023-04-24T10:35:46.458Z,5.80
2023-04-24T10:38:15.539Z,6.50
2023-04-24T10:40:44.364Z,6.20
2023-04-24T10:43:18.016Z,6.50
2023-04-24T10:46:05.925Z,6.70
2023-04-24T10:48:34.556Z,6.30
2023-04-24T10:51:13.894Z,5.10
2023-04-24T10:53:41.517Z,6.00
2023-04-24T10:56:14.545Z,6.10
2023-04-24T10:58:47.317Z,5.60
2023-04-24T11:01:29.952Z,6.20
2023-04-24T11:04:03.380Z,5.90
2023-04-24T11:06:32.977Z,6.00
2023-04-24T11:09:13.275Z,6.30
2023-04-24T11:11:46.356Z,7.00
2023-04-24T11:14:17.250Z,6.60
2023-04-24T11:16:45.960Z,6.70
2023-04-24T11:19:17.460Z,6.60
2023-04-24T11:21:47.928Z,6.20
2023-04-24T11:24:40.682Z,7.00
2023-04-24T11:27:15.987Z,7.10
2023-04-24T11:29:57.277Z,6.70
2023-04-24T11:32:29.428Z,6.10
2023-04-24T11:34:59.392Z,6.70
2023-04-24T11:37:28.878Z,6.50
2023-04-24T11:39:58.490Z,6.30
2023-04-24T11:42:26.758Z,6.50
2023-04-24T11:44:56.820Z,6.50
2023-04-24T11:47:32.435Z,6.40
2023-04-24T11:50:02.160Z,6.50
2023-04-24T11:52:31.627Z,6.10
2023-04-24T11:55:00.746Z,6.70
2023-04-24T11:57:34.439Z,6.70
2023-04-24T12:00:04.528Z,5.80
2023-04-24T12:02:40.460Z,6.00
2023-04-24T12:05:09.827Z,5.70
2023-04-24T12:07:43.805Z,6.10
2023-04-24T12:10:11.965Z,6.10
2023-04-24T12:12:39.703Z,5.70
2023-04-24T12:15:09.434Z,6.60
2023-04-24T12:17:39.861Z,5.30
2023-04-24T12:20:09.735Z,5.80
2023-04-24T12:22:51.362Z,5.50
2023-04-24T12:25:20.296Z,5.50
2023-04-24T12:27:54.602Z,5.20
2023-04-24T12:30:27.038Z,5.70
2023-04-24T12:32:55.925Z,4.70
2023-04-24T12:35:26.428Z,4.30
2023-04-24T12:37:54.218Z,5.80
2023-04-24T12:40:23.136Z,4.90
2023-04-24T12:42:51.926Z,4.90
2023-04-24T12:45:20.359Z,5.10
2023-04-24T12:47:49.569Z,5.00
2023-04-24T12:50:17.454Z,5.10
2023-04-24T12:52:46.361Z,5.10
2023-04-24T12:55:14.150Z,4.60
2023-04-24T12:57:42.286Z,5.50
2023-04-24T13:00:11.057Z,5.60
2023-04-24T13:02:38.992Z,5.20
2023-04-24T13:05:09.523Z,6.00
2023-04-24T13:07:37.110Z,5.30
2023-04-24T13:10:05.109Z,5.30
2023-04-24T13:12:33.143Z,6.00
2023-04-24T13:15:00.758Z,5.40
2023-04-24T13:17:28.504Z,5.20
2023-04-24T13:19:56.190Z,5.20
2023-04-24T13:22:23.893Z,5.20
2023-04-24T13:24:51.514Z,5.60
2023-04-24T13:27:19.653Z,5.90
2023-04-24T13:29:47.565Z,5.90
2023-04-24T13:32:15.272Z,5.70
2023-04-24T13:34:43.557Z,5.80
2023-04-24T13:37:11.237Z,7.40
2023-04-24T13:39:38.838Z,6.10
2023-04-24T13:42:06.469Z,5.90
2023-04-24T13:44:34.092Z,5.80
2023-04-24T13:47:01.776Z,6.00
2023-04-24T13:49:29.490Z,6.40
2023-04-24T13:51:57.255Z,6.60
2023-04-24T13:54:26.888Z,6.50
2023-04-24T13:56:58.613Z,6.20
2023-04-24T13:59:26.518Z,5.80
2023-04-24T14:01:54.313Z,6.30
2023-04-24T14:04:22.414Z,6.20
2023-04-24T14:06:50.384Z,5.80
2023-04-24T14:09:18.010Z,6.20
2023-04-24T14:11:45.654Z,5.40
2023-04-24T14:14:13.263Z,6.20
2023-04-24T14:16:41.300Z,6.00
2023-04-24T14:19:08.992Z,5.80
2023-04-24T14:21:36.650Z,6.10
2023-04-24T14:24:04.366Z,6.10
2023-04-24T14:26:32.096Z,6.30
2023-04-24T14:29:11.665Z,6.40
2023-04-24T14:31:43.124Z,6.60
2023-04-24T14:34:11.019Z,7.00
2023-04-24T14:36:38.685Z,6.70
2023-04-24T14:39:07.985Z,6.80
2023-04-24T14:41:38.200Z,6.90
2023-04-24T14:44:06.714Z,7.00
2023-04-24T14:46:34.781Z,6.50
2023-04-24T14:49:02.590Z,6.30
2023-04-24T14:51:31.399Z,6.10
2023-04-24T14:53:59.331Z,6.70
2023-04-24T14:56:26.999Z,6.70
2023-04-24T14:58:54.672Z,6.80
2023-04-24T15:01:22.580Z,6.90
2023-04-24T15:03:50.523Z,7.00
2023-04-24T15:06:18.414Z,7.30
2023-04-24T15:08:48.039Z,7.90
2023-04-24T15:11:17.220Z,7.30
2023-04-24T15:13:48.137Z,6.50
2023-04-24T15:16:16.529Z,6.80
2023-04-24T15:18:44.474Z,6.50
2023-04-24T15:21:13.769Z,6.70
2023-04-24T15:23:41.370Z,5.90
2023-04-24T15:26:08.987Z,5.60
2023-04-24T15:28:36.618Z,5.20
2023-04-24T15:31:04.325Z,4.50
2023-04-24T15:33:31.938Z,5.10
2023-04-24T15:35:59.553Z,5.10
2023-04-24T15:38:27.205Z,4.60
2023-04-24T15:40:54.836Z,4.90
2023-04-24T15:43:23.287Z,4.90
2023-04-24T15:45:51.300Z,5.30
2023-04-24T15:48:19.666Z,4.90
2023-04-24T15:50:47.236Z,4.80
2023-04-24T15:53:22.184Z,4.60
2023-04-24T15:55:51.481Z,4.20
2023-04-24T15:58:21.477Z,4.60
2023-04-24T16:00:49.896Z,5.90
2023-04-24T16:03:17.750Z,6.90
2023-04-24T16:05:45.537Z,6.70
2023-04-24T16:08:15.405Z,6.80
2023-04-24T16:10:43.476Z,6.70
2023-04-24T16:13:11.147Z,7.00
2023-04-24T16:15:40.013Z,6.90
2023-04-24T16:18:08.006Z,6.70
2023-04-24T16:20:35.654Z,7.10
2023-04-24T16:23:03.338Z,6.80
2023-04-24T16:25:31.075Z,6.90
2023-04-24T16:27:58.674Z,7.30
2023-04-24T16:30:26.751Z,7.40
2023-04-24T16:32:54.499Z,7.20
2023-04-24T16:35:22.101Z,7.20
2023-04-24T16:37:49.807Z,6.70
2023-04-24T16:40:17.623Z,9.40
2023-04-24T16:42:45.231Z,43.00
2023-04-24T16:45:12.822Z,8.80
2023-04-24T16:47:40.712Z,8.00
2023-04-24T16:50:09.196Z,8.10
2023-04-24T16:52:36.823Z,7.90
2023-04-24T16:55:05.068Z,8.10
2023-04-24T16:57:32.680Z,7.60
2023-04-24T17:00:00.262Z,7.90
2023-04-24T17:02:29.032Z,7.90
2023-04-24T17:04:57.230Z,8.00
2023-04-24T17:07:24.960Z,8.10
2023-04-24T17:09:52.622Z,8.10
2023-04-24T17:12:20.358Z,8.20
2023-04-24T17:14:48.015Z,8.30
2023-04-24T17:17:16.295Z,9.60
2023-04-24T17:19:43.960Z,10.40
2023-04-24T17:22:11.549Z,9.80
2023-04-24T17:24:39.398Z,8.70
2023-04-24T17:27:14.425Z,9.30
2023-04-24T17:29:42.570Z,11.50
2023-04-24T17:32:10.346Z,12.30
2023-04-24T17:34:37.987Z,9.40
2023-04-24T17:37:05.669Z,9.80
2023-04-24T17:39:33.343Z,8.70
2023-04-24T17:42:02.154Z,8.80
2023-04-24T17:44:29.767Z,8.90
2023-04-24T17:46:57.396Z,9.20
2023-04-24T17:49:25.026Z,10.20
2023-04-24T17:51:52.677Z,8.90
2023-04-24T17:54:20.302Z,9.80
2023-04-24T17:56:48.328Z,8.20
2023-04-24T17:59:16.459Z,9.60
2023-04-24T18:01:44.188Z,9.60
2023-04-24T18:04:12.237Z,9.60
2023-04-24T18:06:40.346Z,10.50
2023-04-24T18:09:08.473Z,11.60
2023-04-24T18:11:36.106Z,10.40
2023-04-24T18:14:03.727Z,10.90
2023-04-24T18:16:31.395Z,10.40
2023-04-24T18:18:59.028Z,10.10
2023-04-24T18:21:26.719Z,11.60
2023-04-24T18:23:55.260Z,11.50
2023-04-24T18:26:23.040Z,10.30
2023-04-24T18:28:50.840Z,11.20
2023-04-24T18:31:18.627Z,10.90
2023-04-24T18:33:46.406Z,10.60
2023-04-24T18:36:14.057Z,11.00
2023-04-24T18:38:41.692Z,11.60
2023-04-24T18:41:09.303Z,11.10
2023-04-24T18:43:36.948Z,11.70
2023-04-24T18:46:04.599Z,12.10
2023-04-24T18:48:32.206Z,12.80
2023-04-24T18:51:00.377Z,11.50
2023-04-24T18:53:28.047Z,12.40
2023-04-24T18:55:55.833Z,12.30
2023-04-24T18:58:23.437Z,12.80
2023-04-24T19:00:51.080Z,13.80
2023-04-24T19:03:20.032Z,15.00
2023-04-24T19:05:47.833Z,14.90
2023-04-24T19:08:15.793Z,16.10
2023-04-24T19:10:43.572Z,16.30
2023-04-24T19:13:11.358Z,14.80
2023-04-24T19:15:40.252Z,14.50
2023-04-24T19:18:08.068Z,13.20
2023-04-24T19:20:35.787Z,15.20
2023-04-24T19:23:03.482Z,13.80
2023-04-24T19:25:31.129Z,14.30
2023-04-24T19:27:58.814Z,14.50
2023-04-24T19:30:26.425Z,14.90
2023-04-24T19:32:54.027Z,14.50
2023-04-24T19:35:21.814Z,15.30
2023-04-24T19:37:49.421Z,15.60
2023-04-24T19:40:17.488Z,15.00
2023-04-24T19:42:45.992Z,17.20
2023-04-24T19:45:13.932Z,19.10
2023-04-24T19:47:41.735Z,22.00
2023-04-24T19:50:10.649Z,17.50
2023-04-24T19:52:38.283Z,15.30
2023-04-24T19:55:06.526Z,15.90
2023-04-24T19:57:34.748Z,15.60
2023-04-24T20:00:02.511Z,15.40
2023-04-24T20:02:33.379Z,15.70
2023-04-24T20:05:01.869Z,16.80
2023-04-24T20:07:29.676Z,17.90
2023-04-24T20:09:57.279Z,18.60
2023-04-24T20:12:25.103Z,18.20
2023-04-24T20:14:52.773Z,18.20
2023-04-24T20:17:20.517Z,19.20
2023-04-24T20:19:48.381Z,19.20
2023-04-24T20:22:16.650Z,18.70
2023-04-24T20:24:45.843Z,20.00
2023-04-24T20:27:14.524Z,19.80
2023-04-24T20:29:42.496Z,21.60
2023-04-24T20:32:10.161Z,20.00
2023-04-24T20:34:37.762Z,21.60
2023-04-24T20:37:06.319Z,21.20
2023-04-24T20:39:34.010Z,22.80
2023-04-24T20:42:01.700Z,21.50
2023-04-24T20:44:29.291Z,21.00
2023-04-24T20:46:56.923Z,23.00
2023-04-24T20:49:24.567Z,20.80
2023-04-24T20:51:52.220Z,21.60
2023-04-24T20:54:19.805Z,19.70
2023-04-24T20:56:47.786Z,20.30
2023-04-24T20:59:15.437Z,19.50
2023-04-24T21:01:44.762Z,18.30
2023-04-24T21:04:12.547Z,18.70
2023-04-24T21:06:40.198Z,20.30
2023-04-24T21:09:08.632Z,18.40
2023-04-24T21:11:36.441Z,16.70
2023-04-24T21:14:04.148Z,17.30
2023-04-24T21:16:31.781Z,16.40
2023-04-24T21:18:59.957Z,17.50
2023-04-24T21:21:27.594Z,12.40
2023-04-24T21:23:55.180Z,12.50
2023-04-24T21:26:22.980Z,11.20
2023-04-24T21:28:51.412Z,10.90
2023-04-24T21:31:19.028Z,12.30
2023-04-24T21:33:47.015Z,13.10
2023-04-24T21:36:14.972Z,12.40
2023-04-24T21:38:42.580Z,13.50
2023-04-24T21:41:10.437Z,12.40
2023-04-24T21:43:44.487Z,12.90
2023-04-24T21:46:13.286Z,12.00
2023-04-24T21:48:41.145Z,11.50
2023-04-24T21:51:08.897Z,11.10
2023-04-24T21:53:36.490Z,10.10
2023-04-24T21:56:06.449Z,9.70
2023-04-24T21:58:34.834Z,8.70
2023-04-24T22:01:02.791Z,8.10
2023-04-24T22:03:30.836Z,8.40
2023-04-24T22:05:58.611Z,8.00
2023-04-24T22:08:26.286Z,8.40
2023-04-24T22:10:54.645Z,8.50
2023-04-24T22:13:22.394Z,9.60
2023-04-24T22:15:53.411Z,10.00
2023-04-24T22:18:24.533Z,10.10
2023-04-24T22:20:54.069Z,10.70
2023-04-24T22:23:22.831Z,10.90
2023-04-24T22:25:50.473Z,10.10
2023-04-24T22:28:18.087Z,10.10
2023-04-24T22:30:45.730Z,10.70
2023-04-24T22:33:13.322Z,10.20
2023-04-24T22:35:40.899Z,11.70
2023-04-24T22:38:08.495Z,10.50
2023-04-24T22:40:36.220Z,10.80
2023-04-24T22:43:03.932Z,11.90
2023-04-24T22:45:31.639Z,10.80
2023-04-24T22:47:59.660Z,11.50
2023-04-24T22:50:28.728Z,10.40
2023-04-24T22:52:56.460Z,9.90
2023-04-24T22:55:24.084Z,9.40
2023-04-24T22:57:52.154Z,8.80
2023-04-24T23:00:19.945Z,9.20
2023-04-24T23:02:47.736Z,9.50
2023-04-24T23:05:15.649Z,8.70
2023-04-24T23:07:43.280Z,8.40
2023-04-24T23:10:11.078Z,8.30
2023-04-24T23:12:38.761Z,8.50
2023-04-24T23:15:07.305Z,8.10
2023-04-24T23:17:34.947Z,8.40
2023-04-24T23:20:04.255Z,8.40
2023-04-24T23:22:31.955Z,8.80
2023-04-24T23:24:59.637Z,8.90
2023-04-24T23:27:27.230Z,9.50
2023-04-24T23:29:54.810Z,9.60
2023-04-24T23:32:22.534Z,10.50
2023-04-24T23:34:50.716Z,11.40
2023-04-24T23:37:19.153Z,11.90
2023-04-24T23:39:47.416Z,12.70
2023-04-24T23:42:15.186Z,11.90
2023-04-24T23:44:42.847Z,12.90
2023-04-24T23:47:10.478Z,12.80
2023-04-24T23:49:38.143Z,13.30
2023-04-24T23:52:05.781Z,13.10
2023-04-24T23:54:33.378Z,13.50
2023-04-24T23:57:01.351Z,13.60
2023-04-24T23:59:29.168Z,13.60
